Terminal Aerodrome Forecast
Issued by NWS Wilmington, OH

Home | Current Version | Previous Version | Text Only | Print | Product List | Glossary On
Versions: 1 2 3 4 5 6 7 8 9 10 11 12 13 14 15 16 17 18 19 20 21 22 23
000
FTUS41 KILN 311400 AAA
TAFCVG
TAF AMD
KCVG 311457Z 3115/0118 24008KT P6SM SCT040
     FM010000 VRB03KT P6SM SKC
     FM011500 12005KT P6SM SCT040=

USA.gov is the U.S. government's official web portal to all federal, state and local government web resources and services.